sensor_id;sensor_type;location;lat;lon;timestamp;pressure;altitude;pressure_sealevel;temperature;humidity
63006;BME280;53704;52.532;6.426;2023-02-18T00:00:08;102088.13;;;8.20;100.00
63006;BME280;53704;52.532;6.426;2023-02-18T00:02:35;102101.16;;;8.13;100.00
63006;BME280;53704;52.532;6.426;2023-02-18T00:05:01;102093.09;;;8.13;100.00
63006;BME280;53704;52.532;6.426;2023-02-18T00:07:26;102093.38;;;8.22;100.00
63006;BME280;53704;52.532;6.426;2023-02-18T00:09:51;102090.66;;;8.10;100.00
63006;BME280;53704;52.532;6.426;2023-02-18T00:12:17;102087.50;;;8.17;100.00
63006;BME280;53704;52.532;6.426;2023-02-18T00:14:42;102086.66;;;8.16;100.00
63006;BME280;53704;52.532;6.426;2023-02-18T00:17:08;102085.16;;;8.12;100.00
63006;BME280;53704;52.532;6.426;2023-02-18T00:19:34;102076.06;;;8.26;100.00
63006;BME280;53704;52.532;6.426;2023-02-18T00:21:59;102072.25;;;8.17;100.00
63006;BME280;53704;52.532;6.426;2023-02-18T00:24:24;102085.28;;;8.10;100.00
63006;BME280;53704;52.532;6.426;2023-02-18T00:26:51;102076.44;;;8.21;100.00
63006;BME280;53704;52.532;6.426;2023-02-18T00:29:17;102090.66;;;8.10;100.00
63006;BME280;53704;52.532;6.426;2023-02-18T00:31:42;102086.31;;;7.96;100.00
63006;BME280;53704;52.532;6.426;2023-02-18T00:34:09;102089.34;;;7.92;100.00
63006;BME280;53704;52.532;6.426;2023-02-18T00:36:35;102084.09;;;7.90;100.00
63006;BME280;53704;52.532;6.426;2023-02-18T00:39:03;102082.53;;;7.88;100.00
63006;BME280;53704;52.532;6.426;2023-02-18T00:41:29;102077.56;;;7.94;100.00
63006;BME280;53704;52.532;6.426;2023-02-18T00:43:55;102070.47;;;7.93;100.00
63006;BME280;53704;52.532;6.426;2023-02-18T00:46:22;102061.47;;;7.94;100.00
63006;BME280;53704;52.532;6.426;2023-02-18T00:48:48;102060.78;;;8.04;100.00
63006;BME280;53704;52.532;6.426;2023-02-18T00:51:13;102054.63;;;7.90;100.00
63006;BME280;53704;52.532;6.426;2023-02-18T00:53:39;102051.59;;;7.95;100.00
63006;BME280;53704;52.532;6.426;2023-02-18T00:56:05;102047.09;;;7.95;100.00
63006;BME280;53704;52.532;6.426;2023-02-18T00:58:32;102044.06;;;8.00;100.00
63006;BME280;53704;52.532;6.426;2023-02-18T01:00:58;102042.19;;;7.89;100.00
63006;BME280;53704;52.532;6.426;2023-02-18T01:03:23;102039.63;;;7.88;100.00
63006;BME280;53704;52.532;6.426;2023-02-18T01:05:49;102029.28;;;7.94;100.00
63006;BME280;53704;52.532;6.426;2023-02-18T01:08:16;102034.06;;;8.02;100.00
63006;BME280;53704;52.532;6.426;2023-02-18T01:10:44;102032.41;;;7.77;100.00
63006;BME280;53704;52.532;6.426;2023-02-18T01:13:10;102035.34;;;7.85;100.00
63006;BME280;53704;52.532;6.426;2023-02-18T01:15:37;102037.75;;;7.77;100.00
63006;BME280;53704;52.532;6.426;2023-02-18T01:18:02;102032.09;;;7.93;100.00
63006;BME280;53704;52.532;6.426;2023-02-18T01:20:28;102024.00;;;7.82;100.00
63006;BME280;53704;52.532;6.426;2023-02-18T01:22:54;102032.78;;;7.84;100.00
63006;BME280;53704;52.532;6.426;2023-02-18T01:25:19;102022.06;;;7.84;100.00
63006;BME280;53704;52.532;6.426;2023-02-18T01:27:44;102008.31;;;7.88;100.00
63006;BME280;53704;52.532;6.426;2023-02-18T01:30:13;102004.06;;;7.97;100.00
63006;BME280;53704;52.532;6.426;2023-02-18T01:32:39;101993.53;;;7.83;100.00
63006;BME280;53704;52.532;6.426;2023-02-18T01:35:05;101991.38;;;7.88;100.00
63006;BME280;53704;52.532;6.426;2023-02-18T01:37:31;101988.44;;;7.91;100.00
63006;BME280;53704;52.532;6.426;2023-02-18T01:39:56;101989.31;;;8.03;100.00
63006;BME280;53704;52.532;6.426;2023-02-18T01:42:25;101988.44;;;7.91;100.00
63006;BME280;53704;52.532;6.426;2023-02-18T01:44:51;101984.78;;;7.92;100.00
63006;BME280;53704;52.532;6.426;2023-02-18T01:47:17;101967.50;;;7.96;100.00
63006;BME280;53704;52.532;6.426;2023-02-18T01:49:47;101966.66;;;7.95;100.00
63006;BME280;53704;52.532;6.426;2023-02-18T01:52:17;101958.56;;;7.84;100.00
63006;BME280;53704;52.532;6.426;2023-02-18T01:54:46;101954.91;;;7.85;100.00
63006;BME280;53704;52.532;6.426;2023-02-18T01:57:22;101972.72;;;7.86;100.00
63006;BME280;53704;52.532;6.426;2023-02-18T01:59:53;101970.53;;;7.91;100.00
63006;BME280;53704;52.532;6.426;2023-02-18T02:02:21;101958.09;;;7.90;100.00
63006;BME280;53704;52.532;6.426;2023-02-18T02:04:48;101951.75;;;7.80;100.00
63006;BME280;53704;52.532;6.426;2023-02-18T02:07:14;101944.69;;;7.90;100.00
63006;BME280;53704;52.532;6.426;2023-02-18T02:09:41;101953.72;;;7.89;100.00
63006;BME280;53704;52.532;6.426;2023-02-18T02:18:08;101935.66;;;7.80;100.00
63006;BME280;53704;52.532;6.426;2023-02-18T02:37:13;101917.63;;;7.93;100.00
63006;BME280;53704;52.532;6.426;2023-02-18T02:39:58;101914.94;;;7.93;100.00
63006;BME280;53704;52.532;6.426;2023-02-18T02:47:50;101897.53;;;7.99;100.00
63006;BME280;53704;52.532;6.426;2023-02-18T02:50:21;101889.72;;;7.96;100.00
63006;BME280;53704;52.532;6.426;2023-02-18T02:52:53;101883.88;;;8.02;100.00
63006;BME280;53704;52.532;6.426;2023-02-18T02:55:21;101877.53;;;8.03;100.00
63006;BME280;53704;52.532;6.426;2023-02-18T02:57:52;101873.53;;;8.09;100.00
63006;BME280;53704;52.532;6.426;2023-02-18T03:00:22;101857.91;;;8.14;100.00
63006;BME280;53704;52.532;6.426;2023-02-18T03:10:32;101856.94;;;8.15;100.00
63006;BME280;53704;52.532;6.426;2023-02-18T03:24:00;101837.19;;;8.16;100.00
63006;BME280;53704;52.532;6.426;2023-02-18T03:26:30;101828.78;;;8.21;100.00
63006;BME280;53704;52.532;6.426;2023-02-18T03:28:59;101821.34;;;8.24;100.00
63006;BME280;53704;52.532;6.426;2023-02-18T03:31:28;101825.47;;;8.28;100.00
63006;BME280;53704;52.532;6.426;2023-02-18T03:33:58;101817.91;;;8.22;100.00
63006;BME280;53704;52.532;6.426;2023-02-18T03:36:28;101809.34;;;8.28;100.00
63006;BME280;53704;52.532;6.426;2023-02-18T03:39:00;101800.97;;;8.22;100.00
63006;BME280;53704;52.532;6.426;2023-02-18T03:41:27;101804.38;;;8.35;100.00
63006;BME280;53704;52.532;6.426;2023-02-18T03:43:58;101796.97;;;8.16;100.00
63006;BME280;53704;52.532;6.426;2023-02-18T03:46:26;101793.91;;;8.21;100.00
63006;BME280;53704;52.532;6.426;2023-02-18T03:48:51;101773.75;;;8.26;100.00
63006;BME280;53704;52.532;6.426;2023-02-18T03:51:17;101760.25;;;8.17;100.00
63006;BME280;53704;52.532;6.426;2023-02-18T03:53:44;101746.59;;;8.20;100.00
63006;BME280;53704;52.532;6.426;2023-02-18T03:56:09;101747.94;;;8.14;100.00
63006;BME280;53704;52.532;6.426;2023-02-18T03:58:35;101749.91;;;8.12;100.00
63006;BME280;53704;52.532;6.426;2023-02-18T04:01:00;101748.06;;;8.12;100.00
63006;BME280;53704;52.532;6.426;2023-02-18T04:03:26;101749.78;;;8.13;100.00
63006;BME280;53704;52.532;6.426;2023-02-18T04:05:51;101750.75;;;8.12;100.00
63006;BME280;53704;52.532;6.426;2023-02-18T04:08:17;101749.03;;;8.23;100.00
63006;BME280;53704;52.532;6.426;2023-02-18T04:10:42;101745.75;;;8.19;100.00
63006;BME280;53704;52.532;6.426;2023-02-18T04:13:08;101753.09;;;8.06;100.00
63006;BME280;53704;52.532;6.426;2023-02-18T04:15:33;101745.88;;;8.06;100.00
63006;BME280;53704;52.532;6.426;2023-02-18T04:17:59;101742.34;;;8.06;100.00
63006;BME280;53704;52.532;6.426;2023-02-18T04:20:24;101731.75;;;8.04;100.00
63006;BME280;53704;52.532;6.426;2023-02-18T04:22:50;101738.44;;;8.21;100.00
63006;BME280;53704;52.532;6.426;2023-02-18T04:25:16;101728.56;;;8.10;100.00
63006;BME280;53704;52.532;6.426;2023-02-18T04:27:41;101729.16;;;8.14;100.00
63006;BME280;53704;52.532;6.426;2023-02-18T04:30:07;101721.16;;;8.03;100.00
63006;BME280;53704;52.532;6.426;2023-02-18T04:32:33;101708.72;;;8.13;100.00
63006;BME280;53704;52.532;6.426;2023-02-18T04:34:58;101703.72;;;8.08;100.00
63006;BME280;53704;52.532;6.426;2023-02-18T04:37:24;101707.63;;;8.04;100.00
63006;BME280;53704;52.532;6.426;2023-02-18T04:39:49;101701.63;;;8.12;100.00
63006;BME280;53704;52.532;6.426;2023-02-18T04:42:15;101686.16;;;8.04;100.00
63006;BME280;53704;52.532;6.426;2023-02-18T04:44:40;101687.97;;;8.15;100.00
63006;BME280;53704;52.532;6.426;2023-02-18T04:47:06;101687.13;;;8.03;100.00
63006;BME280;53704;52.532;6.426;2023-02-18T04:49:32;101684.19;;;8.06;100.00
63006;BME280;53704;52.532;6.426;2023-02-18T04:51:57;101669.09;;;8.05;100.00
63006;BME280;53704;52.532;6.426;2023-02-18T04:54:23;101661.41;;;8.12;100.00
63006;BME280;53704;52.532;6.426;2023-02-18T04:56:48;101661.19;;;8.04;100.00
63006;BME280;53704;52.532;6.426;2023-02-18T04:59:15;101650.94;;;8.09;100.00
63006;BME280;53704;52.532;6.426;2023-02-18T05:01:40;101656.94;;;8.22;100.00
63006;BME280;53704;52.532;6.426;2023-02-18T05:04:06;101659.09;;;8.07;100.00
63006;BME280;53704;52.532;6.426;2023-02-18T05:06:31;101647.03;;;8.13;100.00
63006;BME280;53704;52.532;6.426;2023-02-18T05:08:57;101646.38;;;8.21;100.00
63006;BME280;53704;52.532;6.426;2023-02-18T05:11:22;101641.72;;;8.23;100.00
63006;BME280;53704;52.532;6.426;2023-02-18T05:13:48;101636.50;;;8.21;100.00
63006;BME280;53704;52.532;6.426;2023-02-18T05:16:13;101636.88;;;8.17;100.00
63006;BME280;53704;52.532;6.426;2023-02-18T05:18:39;101638.94;;;8.24;100.00
63006;BME280;53704;52.532;6.426;2023-02-18T05:21:04;101634.53;;;8.23;100.00
63006;BME280;53704;52.532;6.426;2023-02-18T05:23:30;101621.63;;;8.17;100.00
63006;BME280;53704;52.532;6.426;2023-02-18T05:25:55;101618.88;;;8.28;100.00
63006;BME280;53704;52.532;6.426;2023-02-18T05:28:21;101610.25;;;8.25;100.00
63006;BME280;53704;52.532;6.426;2023-02-18T05:30:47;101607.06;;;8.31;100.00
63006;BME280;53704;52.532;6.426;2023-02-18T05:33:12;101607.06;;;8.31;100.00
63006;BME280;53704;52.532;6.426;2023-02-18T05:35:38;101614.03;;;8.22;100.00
63006;BME280;53704;52.532;6.426;2023-02-18T05:38:03;101596.72;;;8.26;100.00
63006;BME280;53704;52.532;6.426;2023-02-18T05:40:29;101600.38;;;8.25;100.00
63006;BME280;53704;52.532;6.426;2023-02-18T05:42:55;101599.53;;;8.25;100.00
63006;BME280;53704;52.532;6.426;2023-02-18T05:45:21;101585.84;;;8.28;100.00
63006;BME280;53704;52.532;6.426;2023-02-18T05:47:46;101588.53;;;8.28;100.00
63006;BME280;53704;52.532;6.426;2023-02-18T05:50:12;101574.28;;;8.27;100.00
63006;BME280;53704;52.532;6.426;2023-02-18T05:52:37;101571.78;;;8.36;100.00
63006;BME280;53704;52.532;6.426;2023-02-18T05:55:03;101565.59;;;8.35;100.00
63006;BME280;53704;52.532;6.426;2023-02-18T05:57:28;101566.69;;;8.32;100.00
63006;BME280;53704;52.532;6.426;2023-02-18T05:59:54;101568.53;;;8.32;100.00
63006;BME280;53704;52.532;6.426;2023-02-18T06:02:19;101563.88;;;8.34;100.00
63006;BME280;53704;52.532;6.426;2023-02-18T06:04:45;101567.13;;;8.38;100.00
63006;BME280;53704;52.532;6.426;2023-02-18T06:07:10;101562.78;;;8.37;100.00
63006;BME280;53704;52.532;6.426;2023-02-18T06:09:36;101566.44;;;8.36;100.00
63006;BME280;53704;52.532;6.426;2023-02-18T06:12:01;101562.78;;;8.37;100.00
63006;BME280;53704;52.532;6.426;2023-02-18T06:14:26;101563.22;;;8.42;100.00
63006;BME280;53704;52.532;6.426;2023-02-18T06:16:52;101569.31;;;8.44;100.00
63006;BME280;53704;52.532;6.426;2023-02-18T06:19:17;101563.56;;;8.48;100.00
63006;BME280;53704;52.532;6.426;2023-02-18T06:21:43;101563.97;;;8.44;100.00
63006;BME280;53704;52.532;6.426;2023-02-18T06:24:08;101566.38;;;8.47;100.00
63006;BME280;53704;52.532;6.426;2023-02-18T06:26:34;101571.50;;;8.50;100.00
63006;BME280;53704;52.532;6.426;2023-02-18T06:28:59;101566.25;;;8.48;100.00
63006;BME280;53704;52.532;6.426;2023-02-18T06:31:25;101564.66;;;8.46;100.00
63006;BME280;53704;52.532;6.426;2023-02-18T06:33:50;101563.19;;;8.53;100.00
63006;BME280;53704;52.532;6.426;2023-02-18T06:36:16;101555.69;;;8.57;100.00
63006;BME280;53704;52.532;6.426;2023-02-18T06:38:43;101555.69;;;8.57;100.00
63006;BME280;53704;52.532;6.426;2023-02-18T06:41:10;101541.69;;;8.53;100.00
63006;BME280;53704;52.532;6.426;2023-02-18T06:43:37;101541.44;;;8.56;100.00
63006;BME280;53704;52.532;6.426;2023-02-18T06:46:03;101541.19;;;8.59;100.00
63006;BME280;53704;52.532;6.426;2023-02-18T06:48:28;101540.47;;;8.57;100.00
63006;BME280;53704;52.532;6.426;2023-02-18T06:50:54;101538.75;;;8.56;100.00
63006;BME280;53704;52.532;6.426;2023-02-18T06:53:19;101537.78;;;8.57;100.00
63006;BME280;53704;52.532;6.426;2023-02-18T06:55:45;101530.44;;;8.59;100.00
63006;BME280;53704;52.532;6.426;2023-02-18T06:58:11;101540.34;;;8.59;100.00
63006;BME280;53704;52.532;6.426;2023-02-18T07:00:37;101535.53;;;8.62;100.00
63006;BME280;53704;52.532;6.426;2023-02-18T07:03:03;101539.94;;;8.63;100.00
63006;BME280;53704;52.532;6.426;2023-02-18T07:05:29;101550.50;;;8.65;100.00
63006;BME280;53704;52.532;6.426;2023-02-18T07:07:54;101550.81;;;8.62;100.00
63006;BME280;53704;52.532;6.426;2023-02-18T07:10:20;101528.47;;;8.61;100.00
63006;BME280;53704;52.532;6.426;2023-02-18T07:12:46;101522.00;;;8.64;100.00
63006;BME280;53704;52.532;6.426;2023-02-18T07:15:11;101527.22;;;8.65;100.00
63006;BME280;53704;52.532;6.426;2023-02-18T07:17:37;101524.53;;;8.65;100.00
63006;BME280;53704;52.532;6.426;2023-02-18T07:20:04;101530.75;;;8.66;100.00
63006;BME280;53704;52.532;6.426;2023-02-18T07:22:30;101536.25;;;8.64;100.00
63006;BME280;53704;52.532;6.426;2023-02-18T07:24:55;101544.31;;;8.64;100.00
63006;BME280;53704;52.532;6.426;2023-02-18T07:27:22;101538.81;;;8.66;100.00
63006;BME280;53704;52.532;6.426;2023-02-18T07:29:48;101543.78;;;8.71;100.00
63006;BME280;53704;52.532;6.426;2023-02-18T07:32:15;101540.66;;;8.65;100.00
63006;BME280;53704;52.532;6.426;2023-02-18T07:34:41;101538.53;;;8.69;100.00
63006;BME280;53704;52.532;6.426;2023-02-18T07:37:06;101528.91;;;8.66;100.00
63006;BME280;53704;52.532;6.426;2023-02-18T07:39:43;101543.19;;;8.67;100.00
63006;BME280;53704;52.532;6.426;2023-02-18T07:42:12;101547.56;;;8.68;100.00
63006;BME280;53704;52.532;6.426;2023-02-18T07:44:39;101537.97;;;8.65;100.00
63006;BME280;53704;52.532;6.426;2023-02-18T07:47:06;101528.78;;;8.68;100.00
63006;BME280;53704;52.532;6.426;2023-02-18T07:49:32;101539.63;;;8.66;100.00
63006;BME280;53704;52.532;6.426;2023-02-18T07:51:57;101537.97;;;8.65;100.00
63006;BME280;53704;52.532;6.426;2023-02-18T07:54:23;101538.66;;;8.67;100.00
63006;BME280;53704;52.532;6.426;2023-02-18T07:56:49;101540.25;;;8.70;100.00
63006;BME280;53704;52.532;6.426;2023-02-18T07:59:15;101534.75;;;8.72;100.00
63006;BME280;53704;52.532;6.426;2023-02-18T08:01:40;101539.25;;;8.71;100.00
63006;BME280;53704;52.532;6.426;2023-02-18T08:04:06;101544.75;;;8.69;100.00
63006;BME280;53704;52.532;6.426;2023-02-18T08:06:36;101532.19;;;8.70;100.00
63006;BME280;53704;52.532;6.426;2023-02-18T08:09:02;101544.59;;;8.71;100.00
63006;BME280;53704;52.532;6.426;2023-02-18T08:11:28;101534.75;;;8.72;100.00
63006;BME280;53704;52.532;6.426;2023-02-18T08:13:53;101532.63;;;8.75;100.00
63006;BME280;53704;52.532;6.426;2023-02-18T08:16:19;101517.63;;;8.73;100.00
63006;BME280;53704;52.532;6.426;2023-02-18T08:18:45;101527.69;;;8.80;100.00
63006;BME280;53704;52.532;6.426;2023-02-18T08:21:16;101529.81;;;8.77;100.00
63006;BME280;53704;52.532;6.426;2023-02-18T08:23:42;101531.66;;;8.76;100.00
63006;BME280;53704;52.532;6.426;2023-02-18T08:26:08;101532.50;;;8.77;100.00
63006;BME280;53704;52.532;6.426;2023-02-18T08:28:34;101516.97;;;8.80;100.00
63006;BME280;53704;52.532;6.426;2023-02-18T08:31:00;101537.06;;;8.86;100.00
63006;BME280;53704;52.532;6.426;2023-02-18T08:33:25;101532.38;;;8.78;100.00
63006;BME280;53704;52.532;6.426;2023-02-18T08:35:52;101533.94;;;8.81;100.00
63006;BME280;53704;52.532;6.426;2023-02-18T08:38:19;101531.25;;;8.81;100.00
63006;BME280;53704;52.532;6.426;2023-02-18T08:40:45;101522.06;;;8.83;100.00
63006;BME280;53704;52.532;6.426;2023-02-18T08:43:11;101522.94;;;8.84;100.00
63006;BME280;53704;52.532;6.426;2023-02-18T08:45:38;101516.81;;;8.82;100.00
63006;BME280;53704;52.532;6.426;2023-02-18T08:48:05;101523.50;;;8.87;100.00
63006;BME280;53704;52.532;6.426;2023-02-18T08:50:31;101521.34;;;8.81;100.00
63006;BME280;53704;52.532;6.426;2023-02-18T08:52:56;101527.13;;;8.77;100.00
63006;BME280;53704;52.532;6.426;2023-02-18T08:55:25;101522.94;;;8.84;100.00
63006;BME280;53704;52.532;6.426;2023-02-18T08:57:51;101524.47;;;8.86;100.00
63006;BME280;53704;52.532;6.426;2023-02-18T09:00:17;101525.75;;;8.82;100.00
63006;BME280;53704;52.532;6.426;2023-02-18T09:02:42;101532.22;;;8.80;100.00
63006;BME280;53704;52.532;6.426;2023-02-18T09:05:08;101526.03;;;8.79;100.00
63006;BME280;53704;52.532;6.426;2023-02-18T09:07:35;101526.16;;;8.78;100.00
63006;BME280;53704;52.532;6.426;2023-02-18T09:10:00;101539.84;;;8.75;100.00
63006;BME280;53704;52.532;6.426;2023-02-18T09:12:27;101528.63;;;8.69;100.00
63006;BME280;53704;52.532;6.426;2023-02-18T09:14:52;101532.50;;;8.77;100.00
63006;BME280;53704;52.532;6.426;2023-02-18T09:17:18;101537.44;;;8.72;100.00
63006;BME280;53704;52.532;6.426;2023-02-18T09:19:44;101561.41;;;8.63;100.00
63006;BME280;53704;52.532;6.426;2023-02-18T09:22:09;101547.66;;;8.57;100.00
63006;BME280;53704;52.532;6.426;2023-02-18T09:24:39;101545.34;;;8.52;100.00
63006;BME280;53704;52.532;6.426;2023-02-18T09:27:05;101544.22;;;8.45;100.00
63006;BME280;53704;52.532;6.426;2023-02-18T09:29:31;101550.16;;;8.48;100.00
63006;BME280;53704;52.532;6.426;2023-02-18T09:32:01;101547.88;;;8.44;100.00
63006;BME280;53704;52.532;6.426;2023-02-18T09:34:27;101539.16;;;8.30;100.00
63006;BME280;53704;52.532;6.426;2023-02-18T09:36:52;101547.19;;;8.30;100.00
63006;BME280;53704;52.532;6.426;2023-02-18T09:39:18;101548.44;;;8.26;100.00
63006;BME280;53704;52.532;6.426;2023-02-18T09:41:47;101542.53;;;8.32;100.00
63006;BME280;53704;52.532;6.426;2023-02-18T09:47:02;101553.34;;;8.21;100.00
63006;BME280;53704;52.532;6.426;2023-02-18T09:49:31;101549.94;;;8.19;100.00
63006;BME280;53704;52.532;6.426;2023-02-18T09:54:31;101556.22;;;8.29;100.00
63006;BME280;53704;52.532;6.426;2023-02-18T09:56:57;101563.81;;;8.24;100.00
63006;BME280;53704;52.532;6.426;2023-02-18T09:59:25;101552.50;;;8.21;100.00
63006;BME280;53704;52.532;6.426;2023-02-18T10:01:52;101563.75;;;8.14;100.00
63006;BME280;53704;52.532;6.426;2023-02-18T10:04:33;101558.00;;;8.19;100.00
63006;BME280;53704;52.532;6.426;2023-02-18T10:07:02;101558.97;;;8.18;100.00
63006;BME280;53704;52.532;6.426;2023-02-18T10:09:36;101573.47;;;8.15;100.00
63006;BME280;53704;52.532;6.426;2023-02-18T10:12:12;101563.22;;;8.21;100.00
63006;BME280;53704;52.532;6.426;2023-02-18T10:14:38;101563.44;;;8.29;100.00
63006;BME280;53704;52.532;6.426;2023-02-18T10:17:04;101561.00;;;8.26;100.00
63006;BME280;53704;52.532;6.426;2023-02-18T10:19:35;101564.06;;;8.21;100.00
63006;BME280;53704;52.532;6.426;2023-02-18T10:22:03;101580.50;;;8.28;100.00
63006;BME280;53704;52.532;6.426;2023-02-18T10:24:46;101568.66;;;8.30;100.00
63006;BME280;53704;52.532;6.426;2023-02-18T10:27:20;101571.22;;;8.32;100.00
63006;BME280;53704;52.532;6.426;2023-02-18T10:29:50;101563.63;;;8.37;100.00
63006;BME280;53704;52.532;6.426;2023-02-18T10:32:21;101570.69;;;8.38;100.00
63006;BME280;53704;52.532;6.426;2023-02-18T10:34:52;101562.50;;;8.40;100.00
63006;BME280;53704;52.532;6.426;2023-02-18T10:40:30;101584.50;;;8.55;100.00
63006;BME280;53704;52.532;6.426;2023-02-18T10:51:25;101565.72;;;8.85;100.00
63006;BME280;53704;52.532;6.426;2023-02-18T10:53:53;101577.06;;;8.89;100.00
63006;BME280;53704;52.532;6.426;2023-02-18T10:56:38;101571.88;;;8.97;100.00
63006;BME280;53704;52.532;6.426;2023-02-18T10:59:13;101566.25;;;9.10;100.00
63006;BME280;53704;52.532;6.426;2023-02-18T11:01:40;101568.28;;;9.18;100.00
63006;BME280;53704;52.532;6.426;2023-02-18T11:04:25;101545.19;;;9.15;100.00
63006;BME280;53704;52.532;6.426;2023-02-18T11:06:51;101568.53;;;9.15;100.00
63006;BME280;53704;52.532;6.426;2023-02-18T11:09:27;101561.19;;;9.17;100.00
63006;BME280;53704;52.532;6.426;2023-02-18T11:12:02;101569.09;;;9.18;100.00
63006;BME280;53704;52.532;6.426;2023-02-18T11:14:38;101554.69;;;9.19;100.00
63006;BME280;53704;52.532;6.426;2023-02-18T11:17:25;101563.31;;;9.23;100.00
63006;BME280;53704;52.532;6.426;2023-02-18T11:19:54;101562.06;;;9.27;100.00
63006;BME280;53704;52.532;6.426;2023-02-18T11:24:46;101571.81;;;9.28;100.00
63006;BME280;53704;52.532;6.426;2023-02-18T11:29:58;101584.94;;;9.12;100.00
63006;BME280;53704;52.532;6.426;2023-02-18T11:32:28;101588.91;;;9.17;100.00
63006;BME280;53704;52.532;6.426;2023-02-18T11:34:55;101585.22;;;9.18;100.00
63006;BME280;53704;52.532;6.426;2023-02-18T11:37:21;101581.84;;;9.16;100.00
63006;BME280;53704;52.532;6.426;2023-02-18T11:39:50;101579.31;;;9.24;100.00
63006;BME280;53704;52.532;6.426;2023-02-18T11:42:21;101590.78;;;9.27;100.00
63006;BME280;53704;52.532;6.426;2023-02-18T11:44:53;101586.97;;;9.29;100.00
63006;BME280;53704;52.532;6.426;2023-02-18T11:47:35;101590.53;;;9.39;100.00
63006;BME280;53704;52.532;6.426;2023-02-18T11:50:15;101580.50;;;9.41;100.00
63006;BME280;53704;52.532;6.426;2023-02-18T11:52:46;101581.34;;;9.42;100.00
63006;BME280;53704;52.532;6.426;2023-02-18T11:58:02;101602.84;;;9.52;100.00
63006;BME280;53704;52.532;6.426;2023-02-18T12:03:02;101579.97;;;9.67;100.00
63006;BME280;53704;52.532;6.426;2023-02-18T12:05:30;101574.31;;;9.70;100.00
63006;BME280;53704;52.532;6.426;2023-02-18T12:08:04;101589.75;;;9.68;100.00
63006;BME280;53704;52.532;6.426;2023-02-18T12:10:35;101584.50;;;9.76;100.00
63006;BME280;53704;52.532;6.426;2023-02-18T12:19:12;101572.63;;;9.89;100.00
63006;BME280;53704;52.532;6.426;2023-02-18T12:27:30;101581.97;;;9.94;100.00
63006;BME280;53704;52.532;6.426;2023-02-18T12:36:31;101596.97;;;9.97;100.00
63006;BME280;53704;52.532;6.426;2023-02-18T13:10:40;101608.03;;;9.94;100.00
63006;BME280;53704;52.532;6.426;2023-02-18T13:13:12;101620.06;;;10.00;100.00
63006;BME280;53704;52.532;6.426;2023-02-18T13:15:48;101609.19;;;10.01;100.00
63006;BME280;53704;52.532;6.426;2023-02-18T13:18:31;101627.72;;;10.04;100.00
63006;BME280;53704;52.532;6.426;2023-02-18T13:21:18;101616.97;;;10.04;100.00
63006;BME280;53704;52.532;6.426;2023-02-18T13:26:22;101614.97;;;10.06;100.00
63006;BME280;53704;52.532;6.426;2023-02-18T13:34:45;101621.63;;;10.22;100.00
63006;BME280;53704;52.532;6.426;2023-02-18T13:37:31;101623.59;;;10.10;100.00
63006;BME280;53704;52.532;6.426;2023-02-18T13:40:01;101627.59;;;10.16;100.00
63006;BME280;53704;52.532;6.426;2023-02-18T13:47:44;101628.84;;;10.11;100.00
63006;BME280;53704;52.532;6.426;2023-02-18T13:58:15;101630.00;;;10.09;100.00
63006;BME280;53704;52.532;6.426;2023-02-18T14:00:48;101636.78;;;10.13;100.00
63006;BME280;53704;52.532;6.426;2023-02-18T14:06:00;101632.53;;;10.10;100.00
63006;BME280;53704;52.532;6.426;2023-02-18T14:08:36;101632.66;;;9.99;100.00
63006;BME280;53704;52.532;6.426;2023-02-18T14:13:54;101634.66;;;10.07;100.00
63006;BME280;53704;52.532;6.426;2023-02-18T14:16:20;101642.84;;;10.15;100.00
63006;BME280;53704;52.532;6.426;2023-02-18T14:18:57;101646.97;;;10.00;100.00
63006;BME280;53704;52.532;6.426;2023-02-18T14:21:37;101636.91;;;10.02;100.00
63006;BME280;53704;52.532;6.426;2023-02-18T14:24:06;101651.34;;;10.01;100.00
63006;BME280;53704;52.532;6.426;2023-02-18T14:26:38;101640.56;;;9.91;100.00
63006;BME280;53704;52.532;6.426;2023-02-18T14:29:27;101646.84;;;10.01;100.00
63006;BME280;53704;52.532;6.426;2023-02-18T14:31:59;101648.22;;;9.95;100.00
63006;BME280;53704;52.532;6.426;2023-02-18T14:42:41;101655.44;;;9.85;100.00
63006;BME280;53704;52.532;6.426;2023-02-18T14:45:30;101661.69;;;9.95;100.00
63006;BME280;53704;52.532;6.426;2023-02-18T14:50:25;101658.97;;;9.86;100.00
63006;BME280;53704;52.532;6.426;2023-02-18T14:52:56;101664.63;;;9.83;100.00
63006;BME280;53704;52.532;6.426;2023-02-18T14:55:34;101659.69;;;9.88;100.00
63006;BME280;53704;52.532;6.426;2023-02-18T15:00:42;101674.13;;;9.87;100.00
63006;BME280;53704;52.532;6.426;2023-02-18T15:03:16;101666.03;;;9.77;100.00
63006;BME280;53704;52.532;6.426;2023-02-18T15:05:43;101675.66;;;9.80;100.00
63006;BME280;53704;52.532;6.426;2023-02-18T15:08:35;101674.84;;;9.89;100.00
63006;BME280;53704;52.532;6.426;2023-02-18T15:11:03;101673.69;;;9.82;100.00
63006;BME280;53704;52.532;6.426;2023-02-18T15:13:33;101673.81;;;9.80;100.00
63006;BME280;53704;52.532;6.426;2023-02-18T15:16:03;101679.34;;;9.78;100.00
63006;BME280;53704;52.532;6.426;2023-02-18T15:18:53;101681.59;;;9.73;100.00
63006;BME280;53704;52.532;6.426;2023-02-18T15:21:24;101680.22;;;9.79;100.00
63006;BME280;53704;52.532;6.426;2023-02-18T15:23:52;101679.88;;;9.72;100.00
63006;BME280;53704;52.532;6.426;2023-02-18T15:26:19;101679.34;;;9.78;100.00
63006;BME280;53704;52.532;6.426;2023-02-18T15:29:01;101692.06;;;9.76;100.00
63006;BME280;53704;52.532;6.426;2023-02-18T15:31:30;101684.56;;;9.70;100.00
63006;BME280;53704;52.532;6.426;2023-02-18T15:33:59;101686.00;;;9.74;100.00
63006;BME280;53704;52.532;6.426;2023-02-18T15:36:25;101690.63;;;9.72;100.00
63006;BME280;53704;52.532;6.426;2023-02-18T15:38:51;101689.38;;;9.67;100.00